createdAt,value
2022-08-14T00:01:55.307Z,59.58
2022-08-14T00:04:36.126Z,60.09
2022-08-14T00:07:10.633Z,59.93
2022-08-14T00:09:56.065Z,60.36
2022-08-14T00:12:33.978Z,60.74
2022-08-14T00:15:43.300Z,60.26
2022-08-14T00:18:14.643Z,60.27
2022-08-14T00:20:58.290Z,60.65
2022-08-14T00:23:26.576Z,60.54
2022-08-14T00:26:06.191Z,60.55
2022-08-14T00:28:37.063Z,60.37
2022-08-14T00:31:05.718Z,60.41
2022-08-14T00:33:51.817Z,60.26
2022-08-14T00:36:36.593Z,60.06
2022-08-14T00:39:18.675Z,60.14
2022-08-14T00:41:47.451Z,60.64
2022-08-14T00:44:26.597Z,60.18
2022-08-14T00:47:03.875Z,59.90
2022-08-14T00:49:38.380Z,60.28
2022-08-14T00:52:14.218Z,60.33
2022-08-14T00:54:45.126Z,60.37
2022-08-14T00:57:12.512Z,60.20
2022-08-14T00:59:41.541Z,60.12
2022-08-14T01:02:09.391Z,60.00
2022-08-14T01:04:37.732Z,60.41
2022-08-14T01:07:21.915Z,59.88
2022-08-14T01:10:07.634Z,59.66
2022-08-14T01:12:41.636Z,59.92
2022-08-14T01:15:10.026Z,60.31
2022-08-14T01:18:00.546Z,59.89
2022-08-14T01:20:46.617Z,59.63
2022-08-14T01:23:18.743Z,60.02
2022-08-14T01:25:48.479Z,60.11
2022-08-14T01:28:46.938Z,60.26
2022-08-14T01:31:06.462Z,60.05
2022-08-14T01:33:59.388Z,60.65
2022-08-14T01:36:23.238Z,60.56
2022-08-14T01:38:51.909Z,60.91
2022-08-14T01:41:23.002Z,60.09
2022-08-14T01:44:02.355Z,60.34
2022-08-14T01:46:37.221Z,60.05
2022-08-14T01:49:06.405Z,60.37
2022-08-14T01:51:34.755Z,59.92
2022-08-14T01:54:09.863Z,60.44
2022-08-14T01:56:43.074Z,60.35
2022-08-14T01:59:22.999Z,60.45
2022-08-14T02:01:59.119Z,60.20
2022-08-14T02:04:55.839Z,59.73
2022-08-14T02:07:44.884Z,60.20
2022-08-14T02:10:13.048Z,60.20
2022-08-14T02:12:43.306Z,60.14
2022-08-14T02:15:10.974Z,59.71
2022-08-14T02:17:37.988Z,59.84
2022-08-14T02:20:07.614Z,59.37
2022-08-14T02:22:35.032Z,59.58
2022-08-14T02:25:14.402Z,60.24
2022-08-14T02:28:23.886Z,60.02
2022-08-14T02:30:34.034Z,60.12
2022-08-14T02:33:05.883Z,59.76
2022-08-14T02:35:33.272Z,59.96
2022-08-14T02:38:11.714Z,60.39
2022-08-14T02:40:40.568Z,60.35
2022-08-14T02:43:09.489Z,60.55
2022-08-14T02:45:38.766Z,60.71
2022-08-14T02:49:02.080Z,60.27
2022-08-14T02:51:00.750Z,60.75
2022-08-14T02:53:29.798Z,60.36
2022-08-14T02:56:03.061Z,60.07
2022-08-14T02:58:32.557Z,60.48
2022-08-14T03:01:01.155Z,60.45
2022-08-14T03:03:31.615Z,59.89
2022-08-14T03:06:00.408Z,60.07
2022-08-14T03:08:32.002Z,60.25
2022-08-14T03:11:07.620Z,60.16
2022-08-14T03:13:47.621Z,60.26
2022-08-14T03:16:19.852Z,60.52
2022-08-14T03:18:52.565Z,59.94
2022-08-14T03:21:21.882Z,59.94
2022-08-14T03:23:51.060Z,59.86
2022-08-14T03:26:30.434Z,60.25
2022-08-14T03:29:00.969Z,59.91
2022-08-14T03:31:29.232Z,59.61
2022-08-14T03:34:00.169Z,59.88
2022-08-14T03:37:37.371Z,59.79
2022-08-14T03:39:22.604Z,59.90
2022-08-14T03:41:52.750Z,60.09
2022-08-14T03:45:27.400Z,60.21
2022-08-14T03:47:08.798Z,60.32
2022-08-14T03:49:42.109Z,60.71
2022-08-14T03:52:38.412Z,60.57
2022-08-14T03:54:57.175Z,60.56
2022-08-14T03:57:24.634Z,60.15
2022-08-14T03:59:51.757Z,60.32
2022-08-14T04:02:33.350Z,60.42
2022-08-14T04:05:12.691Z,59.88
2022-08-14T04:07:49.821Z,60.40
2022-08-14T04:10:32.222Z,60.19
2022-08-14T04:13:04.255Z,60.54
2022-08-14T04:15:55.721Z,60.09
2022-08-14T04:18:22.597Z,60.52
2022-08-14T04:20:54.751Z,59.88
2022-08-14T04:23:29.435Z,60.29
2022-08-14T04:26:01.610Z,60.05
2022-08-14T04:29:01.516Z,60.37
2022-08-14T04:32:59.039Z,60.33
2022-08-14T04:34:08.139Z,60.27
2022-08-14T04:37:02.301Z,60.06
2022-08-14T04:39:57.113Z,60.22
2022-08-14T04:42:47.656Z,59.63
2022-08-14T04:45:22.091Z,59.58
2022-08-14T04:48:09.876Z,60.28
2022-08-14T04:50:44.875Z,60.33
2022-08-14T04:53:23.292Z,60.13
2022-08-14T04:55:53.718Z,60.47
2022-08-14T04:58:32.070Z,60.73
2022-08-14T05:01:00.446Z,60.62
2022-08-14T05:03:32.222Z,60.27
2022-08-14T05:06:00.747Z,60.52
2022-08-14T05:08:31.976Z,60.80
2022-08-14T05:11:15.721Z,60.58
2022-08-14T05:14:33.065Z,60.82
2022-08-14T05:16:31.416Z,60.81
2022-08-14T05:19:18.755Z,60.58
2022-08-14T05:22:00.103Z,60.49
2022-08-14T05:24:32.827Z,60.56
2022-08-14T05:27:00.853Z,60.61
2022-08-14T05:29:28.729Z,60.86
2022-08-14T05:31:58.191Z,60.58
2022-08-14T05:34:31.489Z,60.63
2022-08-14T05:37:02.436Z,60.64
2022-08-14T05:39:31.043Z,60.69
2022-08-14T05:41:58.555Z,60.64
2022-08-14T05:44:29.543Z,60.56
2022-08-14T05:46:56.981Z,60.38
2022-08-14T05:49:26.069Z,60.67
2022-08-14T05:52:01.863Z,60.70
2022-08-14T05:54:33.944Z,60.71
2022-08-14T05:57:05.798Z,60.58
2022-08-14T05:59:39.101Z,60.56
2022-08-14T06:02:11.267Z,60.79
2022-08-14T06:04:49.350Z,61.02
2022-08-14T06:07:16.823Z,60.87
2022-08-14T06:09:43.949Z,60.63
2022-08-14T06:12:31.718Z,60.58
2022-08-14T06:15:08.060Z,60.69
2022-08-14T06:17:55.862Z,60.75
2022-08-14T06:20:26.713Z,60.87
2022-08-14T06:22:55.406Z,60.62
2022-08-14T06:25:23.544Z,60.65
2022-08-14T06:27:52.009Z,60.95
2022-08-14T06:30:22.204Z,60.91
2022-08-14T06:32:52.711Z,61.02
2022-08-14T06:35:23.165Z,60.92
2022-08-14T06:37:54.976Z,60.86
2022-08-14T06:40:29.973Z,61.04
2022-08-14T06:43:03.868Z,61.11
2022-08-14T06:45:38.736Z,61.19
2022-08-14T06:48:13.683Z,61.28
2022-08-14T06:50:45.322Z,61.19
2022-08-14T06:53:14.730Z,61.05
2022-08-14T06:55:58.424Z,61.08
2022-08-14T06:58:31.315Z,61.34
2022-08-14T07:01:23.034Z,61.27
2022-08-14T07:04:12.762Z,60.98
2022-08-14T07:06:49.959Z,61.30
2022-08-14T07:09:22.594Z,60.94
2022-08-14T07:11:51.054Z,61.02
2022-08-14T07:14:18.697Z,60.95
2022-08-14T07:16:45.729Z,60.98
2022-08-14T07:19:12.855Z,61.00
2022-08-14T07:21:39.904Z,61.12
2022-08-14T07:24:09.658Z,60.96
2022-08-14T07:26:49.296Z,61.10
2022-08-14T07:29:17.347Z,61.05
2022-08-14T07:31:44.849Z,61.38
2022-08-14T07:34:13.539Z,61.01
2022-08-14T07:37:01.536Z,61.12
2022-08-14T07:39:29.657Z,61.18
2022-08-14T07:42:01.890Z,61.05
2022-08-14T07:44:35.604Z,61.29
2022-08-14T07:47:16.617Z,61.15
2022-08-14T07:49:49.486Z,61.06
2022-08-14T07:52:30.538Z,61.32
2022-08-14T07:54:58.555Z,61.07
2022-08-14T07:57:27.996Z,61.33
2022-08-14T07:59:55.085Z,61.10
2022-08-14T08:02:22.925Z,61.23
2022-08-14T08:04:53.134Z,61.07
2022-08-14T08:07:23.717Z,61.07
2022-08-14T08:09:54.885Z,61.14
2022-08-14T08:12:28.077Z,60.84
2022-08-14T08:15:03.209Z,60.95
2022-08-14T08:17:38.567Z,60.75
2022-08-14T08:20:11.424Z,60.99
2022-08-14T08:22:39.899Z,60.94
2022-08-14T08:25:13.764Z,60.84
2022-08-14T08:27:44.740Z,60.74
2022-08-14T08:30:12.797Z,60.50
2022-08-14T08:32:41.481Z,60.70
2022-08-14T08:35:24.143Z,60.43
2022-08-14T08:38:01.650Z,60.43
2022-08-14T08:40:49.499Z,60.39
2022-08-14T08:43:16.613Z,60.38
2022-08-14T08:45:43.712Z,60.44
2022-08-14T08:48:18.384Z,60.41
2022-08-14T08:50:48.226Z,60.50
2022-08-14T08:53:16.458Z,60.33
2022-08-14T08:55:44.474Z,60.61
2022-08-14T08:58:16.500Z,60.44
2022-08-14T09:00:54.173Z,60.81
2022-08-14T09:03:27.437Z,60.73
2022-08-14T09:05:56.972Z,60.57
2022-08-14T09:08:31.894Z,60.78
2022-08-14T09:11:02.769Z,60.79
2022-08-14T09:13:47.474Z,60.42
2022-08-14T09:16:19.164Z,60.50
2022-08-14T09:18:47.090Z,60.25
2022-08-14T09:21:16.132Z,60.43
2022-08-14T09:24:26.632Z,60.29
2022-08-14T09:26:32.331Z,60.20
2022-08-14T09:29:00.667Z,59.95
2022-08-14T09:31:28.547Z,60.05
2022-08-14T09:34:27.568Z,60.24
2022-08-14T09:37:23.796Z,60.17
2022-08-14T09:40:20.614Z,60.04
2022-08-14T09:43:22.637Z,60.02
2022-08-14T09:45:53.022Z,60.13
2022-08-14T09:48:29.838Z,61.11
2022-08-14T09:50:58.441Z,61.95
2022-08-14T09:54:12.670Z,63.14
2022-08-14T09:56:31.411Z,64.04
2022-08-14T09:59:01.086Z,63.81
2022-08-14T10:01:36.360Z,64.43
2022-08-14T10:04:21.990Z,64.14
2022-08-14T10:06:54.545Z,65.00
2022-08-14T10:09:22.222Z,65.08
2022-08-14T10:11:59.685Z,64.70
2022-08-14T10:14:35.671Z,63.91
2022-08-14T10:17:06.355Z,64.06
2022-08-14T10:19:36.414Z,64.45
2022-08-14T10:23:12.651Z,64.82
2022-08-14T10:24:56.401Z,65.00
2022-08-14T10:27:26.660Z,66.32
2022-08-14T10:30:01.272Z,65.23
2022-08-14T10:32:38.087Z,65.19
2022-08-14T10:35:14.629Z,64.91
2022-08-14T10:37:48.701Z,65.67
2022-08-14T10:40:37.476Z,66.13
2022-08-14T10:43:17.457Z,65.94
2022-08-14T10:46:04.129Z,65.20
2022-08-14T10:48:45.618Z,64.66
2022-08-14T10:51:16.987Z,64.42
2022-08-14T10:53:44.488Z,64.61
2022-08-14T10:56:21.363Z,66.00
2022-08-14T10:59:05.960Z,66.31
2022-08-14T11:01:41.036Z,65.43
2022-08-14T11:04:25.101Z,64.60
2022-08-14T11:06:56.997Z,64.30
2022-08-14T11:09:26.292Z,64.26
2022-08-14T11:12:34.070Z,63.80
2022-08-14T11:14:59.274Z,63.98
2022-08-14T11:17:31.793Z,63.97
2022-08-14T11:20:00.601Z,63.92
2022-08-14T11:22:56.626Z,63.14
2022-08-14T11:25:17.045Z,62.87
2022-08-14T11:27:45.622Z,62.88
2022-08-14T11:30:51.714Z,62.86
2022-08-14T11:33:06.508Z,63.03
2022-08-14T11:35:44.043Z,62.79
2022-08-14T11:38:17.182Z,63.12
2022-08-14T11:40:46.880Z,62.85
2022-08-14T11:43:14.870Z,62.52
2022-08-14T11:45:45.352Z,62.32
2022-08-14T11:49:04.408Z,62.76
2022-08-14T11:51:24.207Z,62.75
2022-08-14T11:54:12.372Z,62.42
2022-08-14T11:56:41.609Z,62.14
2022-08-14T11:59:10.319Z,62.21
2022-08-14T12:01:41.250Z,62.12
2022-08-14T12:04:32.604Z,61.76
2022-08-14T12:06:58.802Z,61.68
2022-08-14T12:09:35.024Z,61.73
2022-08-14T12:12:13.097Z,61.41
2022-08-14T12:15:02.478Z,61.56
2022-08-14T12:17:38.107Z,61.36
2022-08-14T12:20:14.919Z,61.46
2022-08-14T12:22:52.374Z,61.23
2022-08-14T12:25:24.706Z,61.28
2022-08-14T12:27:54.770Z,61.82
2022-08-14T12:30:33.227Z,62.13
2022-08-14T12:33:08.906Z,62.29
2022-08-14T12:35:40.205Z,62.34
2022-08-14T12:38:07.666Z,61.73
2022-08-14T12:40:34.753Z,61.62
2022-08-14T12:43:06.482Z,61.42
2022-08-14T12:45:34.205Z,61.67
2022-08-14T12:48:21.044Z,61.45
2022-08-14T12:50:53.177Z,61.17
2022-08-14T12:53:22.250Z,60.94
2022-08-14T12:56:17.616Z,61.60
2022-08-14T12:58:53.827Z,61.91
2022-08-14T13:01:26.124Z,61.68
2022-08-14T13:04:16.109Z,61.59
2022-08-14T13:06:51.246Z,61.56
2022-08-14T13:09:19.907Z,61.62
2022-08-14T13:11:58.470Z,61.45
2022-08-14T13:14:39.116Z,61.58
2022-08-14T13:17:07.206Z,61.32
2022-08-14T13:19:34.921Z,61.20
2022-08-14T13:22:10.085Z,60.70
2022-08-14T13:24:46.533Z,61.01
2022-08-14T13:27:14.125Z,60.67
2022-08-14T13:29:46.762Z,60.54
2022-08-14T13:32:14.138Z,60.33
2022-08-14T13:34:45.534Z,60.66
2022-08-14T13:37:15.209Z,60.86
2022-08-14T13:39:57.111Z,60.75
2022-08-14T13:42:30.458Z,60.41
2022-08-14T13:45:00.079Z,60.86
2022-08-14T13:47:33.299Z,61.25
2022-08-14T13:50:02.940Z,61.84
2022-08-14T13:52:51.499Z,60.77
2022-08-14T13:55:28.977Z,61.05
2022-08-14T13:58:03.675Z,60.64
2022-08-14T14:00:53.275Z,60.29
2022-08-14T14:03:23.832Z,60.03
2022-08-14T14:05:55.223Z,59.65
2022-08-14T14:08:46.262Z,59.55
2022-08-14T14:11:15.689Z,59.33
2022-08-14T14:13:45.267Z,59.09
2022-08-14T14:16:15.457Z,58.81
2022-08-14T14:18:52.612Z,58.71
2022-08-14T14:21:21.592Z,58.76
2022-08-14T14:23:49.185Z,59.43
2022-08-14T14:26:23.153Z,59.35
2022-08-14T14:28:52.912Z,59.23
2022-08-14T14:31:30.168Z,59.33
2022-08-14T14:34:07.766Z,59.52
2022-08-14T14:36:50.025Z,59.70
2022-08-14T14:39:23.189Z,59.65
2022-08-14T14:41:56.172Z,59.85
2022-08-14T14:44:27.007Z,59.71
2022-08-14T14:46:54.281Z,59.84
2022-08-14T14:49:31.942Z,59.12
2022-08-14T14:52:15.278Z,59.43
2022-08-14T14:54:50.653Z,59.33
2022-08-14T14:57:19.458Z,59.49
2022-08-14T14:59:47.794Z,59.50
2022-08-14T15:02:37.277Z,59.57
2022-08-14T15:05:05.788Z,59.84
2022-08-14T15:07:33.082Z,59.90
2022-08-14T15:10:00.695Z,59.67
2022-08-14T15:12:55.218Z,59.31
2022-08-14T15:15:15.190Z,59.14
2022-08-14T15:17:43.671Z,59.42
2022-08-14T15:20:17.462Z,59.24
2022-08-14T15:22:51.306Z,59.32
2022-08-14T15:25:18.989Z,59.45
2022-08-14T15:27:47.252Z,59.67
2022-08-14T15:30:24.250Z,60.24
2022-08-14T15:32:53.157Z,60.02
2022-08-14T15:35:25.741Z,60.12
2022-08-14T15:37:56.714Z,60.39
2022-08-14T15:40:24.517Z,60.32
2022-08-14T15:42:51.981Z,60.79
2022-08-14T15:45:19.282Z,61.26
2022-08-14T15:47:46.342Z,60.76
2022-08-14T15:50:19.294Z,60.68
2022-08-14T15:52:48.283Z,61.35
2022-08-14T15:55:16.368Z,61.20
2022-08-14T15:58:01.270Z,61.37
2022-08-14T16:00:51.863Z,61.28
2022-08-14T16:03:27.760Z,61.09
2022-08-14T16:06:10.609Z,60.71
2022-08-14T16:08:38.365Z,60.69
2022-08-14T16:11:07.162Z,60.53
2022-08-14T16:13:39.601Z,60.05
2022-08-14T16:16:50.492Z,60.22
2022-08-14T16:19:09.623Z,60.35
2022-08-14T16:22:01.867Z,60.10
2022-08-14T16:24:29.566Z,59.98
2022-08-14T16:27:00.359Z,60.36
2022-08-14T16:29:30.116Z,60.10
2022-08-14T16:31:59.067Z,60.00
2022-08-14T16:34:46.375Z,60.21
2022-08-14T16:37:19.486Z,60.05
2022-08-14T16:39:48.649Z,60.06
2022-08-14T16:42:38.946Z,60.38
2022-08-14T16:45:05.237Z,60.06
2022-08-14T16:47:35.257Z,60.32
2022-08-14T16:50:08.953Z,60.13
2022-08-14T16:52:44.756Z,59.75
2022-08-14T16:55:13.758Z,59.94
2022-08-14T16:57:52.166Z,59.58
2022-08-14T17:00:43.643Z,59.58
2022-08-14T17:03:12.879Z,59.30
2022-08-14T17:05:43.265Z,59.47
2022-08-14T17:08:31.643Z,59.44
2022-08-14T17:11:10.848Z,59.17
2022-08-14T17:13:58.829Z,59.12
2022-08-14T17:16:38.615Z,59.17
2022-08-14T17:19:13.753Z,59.35
2022-08-14T17:21:47.390Z,59.53
2022-08-14T17:24:58.091Z,59.56
2022-08-14T17:27:04.999Z,59.52
2022-08-14T17:29:54.596Z,59.55
2022-08-14T17:32:29.528Z,59.49
2022-08-14T17:35:12.548Z,59.53
2022-08-14T17:37:46.407Z,59.62
2022-08-14T17:44:20.083Z,59.76
2022-08-14T22:26:03.430Z,61.09
